Time;durP1;ratioP1;P1;durP2;ratioP2;P2;SDS_P1;SDS_P2;PMS_P1;PMS_P2;Temp;Humidity;BMP_temperature;BMP_pressure;BME280_temperature;BME280_humidity;BME280_pressure;Samples;Min_cycle;Max_cycle;Signal;HPM_P1;HPM_P2
2024/01/30 00:02:12;;;;;;;26.40;22.20;;;6.90;99.90;;;;;;5020896;28;20479;-67
2024/01/30 00:04:38;;;;;;;28.60;22.65;;;6.80;99.90;;;;;;4978351;28;20152;-65
2024/01/30 00:07:04;;;;;;;27.52;22.80;;;6.80;99.90;;;;;;4986525;28;20046;-66
2024/01/30 00:09:30;;;;;;;28.10;22.10;;;6.80;99.90;;;;;;4984608;28;20084;-65
2024/01/30 00:11:56;;;;;;;28.17;22.15;;;6.80;99.90;;;;;;4983085;28;20077;-66
2024/01/30 00:14:23;;;;;;;26.15;23.20;;;6.70;99.90;;;;;;4995356;28;20069;-66
2024/01/30 00:16:48;;;;;;;26.58;21.80;;;6.70;99.90;;;;;;4981895;28;20049;-65
2024/01/30 00:19:14;;;;;;;30.88;24.40;;;6.70;99.90;;;;;;4984245;28;20545;-66
2024/01/30 00:21:40;;;;;;;27.65;23.33;;;6.70;99.90;;;;;;4981207;28;20084;-66
2024/01/30 00:24:06;;;;;;;28.67;22.70;;;6.60;99.90;;;;;;5000466;28;20057;-66
2024/01/30 00:26:32;;;;;;;27.15;23.23;;;6.60;99.90;;;;;;4999011;28;20050;-65
2024/01/30 00:28:58;;;;;;;28.90;23.50;;;6.50;99.90;;;;;;4986152;28;20498;-66
2024/01/30 00:31:24;;;;;;;31.25;25.17;;;6.50;99.90;;;;;;4998399;28;20076;-66
2024/01/30 00:33:50;;;;;;;28.33;23.60;;;6.40;99.90;;;;;;4998792;28;20296;-66
2024/01/30 00:36:16;;;;;;;28.42;24.65;;;6.50;99.90;;;;;;4997891;28;20488;-66
2024/01/30 00:38:42;;;;;;;30.88;24.40;;;6.40;99.90;;;;;;4999482;28;20518;-67
2024/01/30 00:41:10;;;;;;;26.90;23.17;;;6.30;99.90;;;;;;5000197;28;20050;-66
2024/01/30 00:43:37;;;;;;;27.92;24.58;;;6.40;99.90;;;;;;5004488;28;20361;-65
2024/01/30 00:46:03;;;;;;;28.63;24.15;;;6.40;99.90;;;;;;4984169;28;20072;-65
2024/01/30 00:48:29;;;;;;;31.52;23.75;;;6.40;99.90;;;;;;4982929;28;20049;-66
2024/01/30 00:50:54;;;;;;;29.40;23.75;;;6.30;99.90;;;;;;4986601;28;20060;-65
2024/01/30 00:53:20;;;;;;;29.88;24.08;;;6.30;99.90;;;;;;5002272;28;20056;-66
2024/01/30 00:55:46;;;;;;;29.80;25.13;;;6.30;99.90;;;;;;5000088;28;20054;-66
2024/01/30 00:58:14;;;;;;;29.98;24.67;;;6.20;99.90;;;;;;5003249;28;20042;-66
2024/01/30 01:00:40;;;;;;;28.15;24.33;;;6.20;99.90;;;;;;4983628;28;20519;-66
2024/01/30 01:03:06;;;;;;;30.42;23.25;;;6.20;99.90;;;;;;5040085;28;20124;-65
2024/01/30 01:05:32;;;;;;;29.17;24.08;;;6.10;99.90;;;;;;4969826;28;20037;-65
2024/01/30 01:07:57;;;;;;;33.38;25.33;;;6.20;99.90;;;;;;4986165;28;20296;-66
2024/01/30 01:10:23;;;;;;;29.85;24.98;;;6.20;99.90;;;;;;5002972;28;20399;-65
2024/01/30 01:12:49;;;;;;;29.67;24.60;;;6.20;99.90;;;;;;5003792;28;20047;-65
2024/01/30 01:15:15;;;;;;;36.35;25.45;;;6.30;99.90;;;;;;5004710;28;20699;-66
2024/01/30 01:17:41;;;;;;;28.40;24.23;;;6.30;99.90;;;;;;4986888;28;20049;-67
2024/01/30 01:20:08;;;;;;;32.33;25.05;;;6.40;99.90;;;;;;5003230;28;20108;-66
2024/01/30 01:22:34;;;;;;;32.90;27.45;;;6.50;99.90;;;;;;5002141;28;20045;-65
2024/01/30 01:25:01;;;;;;;31.77;26.05;;;6.50;99.90;;;;;;5010792;28;20048;-66
2024/01/30 01:27:27;;;;;;;36.95;29.35;;;6.50;99.90;;;;;;5002626;28;20052;-65
2024/01/30 01:29:53;;;;;;;37.97;30.10;;;6.50;99.90;;;;;;4986492;28;20041;-65
2024/01/30 01:32:19;;;;;;;37.83;31.33;;;6.60;99.90;;;;;;5002776;28;20030;-66
2024/01/30 01:34:45;;;;;;;42.17;33.00;;;6.60;99.90;;;;;;4996731;28;20037;-66
2024/01/30 01:37:11;;;;;;;44.47;34.60;;;6.60;99.90;;;;;;5003379;28;20056;-65
2024/01/30 01:39:37;;;;;;;37.90;32.38;;;6.70;99.90;;;;;;4986244;28;20064;-65
2024/01/30 01:42:04;;;;;;;43.92;34.28;;;6.70;99.90;;;;;;5003816;28;20519;-65
2024/01/30 01:44:29;;;;;;;39.45;33.60;;;6.70;99.90;;;;;;5004431;28;20095;-65
2024/01/30 01:46:56;;;;;;;37.58;31.55;;;6.70;99.90;;;;;;5000986;28;20614;-65
2024/01/30 01:49:25;;;;;;;41.05;32.05;;;6.60;99.90;;;;;;4998129;28;20104;-66
2024/01/30 01:51:53;;;;;;;39.28;33.38;;;6.70;99.90;;;;;;5021779;28;20042;-66
2024/01/30 01:54:20;;;;;;;38.63;31.08;;;6.60;99.90;;;;;;5001966;28;20350;-64
2024/01/30 01:56:46;;;;;;;35.20;29.80;;;6.50;99.90;;;;;;5000814;28;20289;-64
2024/01/30 01:59:12;;;;;;;34.58;27.52;;;6.60;99.90;;;;;;5001082;28;20117;-65
2024/01/30 02:01:38;;;;;;;33.78;27.40;;;6.40;99.90;;;;;;5001127;28;20738;-65
2024/01/30 02:04:04;;;;;;;32.55;25.50;;;6.30;99.90;;;;;;4985581;28;20061;-65
2024/01/30 02:06:30;;;;;;;31.98;25.33;;;6.30;99.90;;;;;;4988585;28;21171;-64
2024/01/30 02:08:56;;;;;;;27.15;23.35;;;6.10;99.90;;;;;;5005672;28;20155;-65
2024/01/30 02:11:23;;;;;;;27.38;22.75;;;6.00;99.90;;;;;;5002130;28;20497;-64
2024/01/30 02:13:50;;;;;;;30.88;24.23;;;6.00;99.90;;;;;;5004550;28;21363;-66
2024/01/30 02:16:17;;;;;;;31.70;25.70;;;5.90;99.90;;;;;;4998564;28;20046;-64
2024/01/30 02:18:45;;;;;;;28.38;23.80;;;5.90;99.90;;;;;;5002845;28;20420;-65
2024/01/30 02:21:12;;;;;;;31.33;23.58;;;5.90;99.90;;;;;;4987658;28;20049;-65
2024/01/30 02:23:40;;;;;;;29.83;24.55;;;5.90;99.90;;;;;;4999031;28;20068;-65
2024/01/30 02:26:06;;;;;;;27.58;23.02;;;5.90;99.90;;;;;;5002129;28;20124;-65
2024/01/30 02:28:32;;;;;;;31.08;25.38;;;5.90;99.90;;;;;;4984244;28;20229;-65
2024/01/30 02:30:58;;;;;;;30.13;25.30;;;5.90;99.90;;;;;;5002229;28;20645;-65
2024/01/30 02:33:23;;;;;;;30.08;25.58;;;5.80;99.90;;;;;;4988115;28;20041;-65
2024/01/30 02:35:49;;;;;;;30.38;24.20;;;5.80;99.90;;;;;;5001648;28;20077;-64
2024/01/30 02:38:16;;;;;;;29.45;24.08;;;5.90;99.90;;;;;;5001417;28;20134;-65
2024/01/30 02:40:42;;;;;;;32.95;24.60;;;5.90;99.90;;;;;;4986495;28;20045;-65
2024/01/30 02:43:08;;;;;;;33.45;25.77;;;6.00;99.90;;;;;;5000684;28;20048;-68
2024/01/30 02:45:34;;;;;;;31.45;25.88;;;6.00;99.90;;;;;;5005043;28;20042;-65
2024/01/30 02:48:00;;;;;;;32.85;24.05;;;6.00;99.90;;;;;;5000856;28;20747;-67
2024/01/30 02:50:25;;;;;;;27.25;23.10;;;6.10;99.90;;;;;;4984329;28;20309;-65
2024/01/30 02:52:51;;;;;;;31.60;24.85;;;6.20;99.90;;;;;;4987167;28;20377;-65
2024/01/30 02:55:19;;;;;;;26.90;22.80;;;6.20;99.90;;;;;;5001612;28;20095;-65
2024/01/30 02:57:45;;;;;;;31.25;24.20;;;6.20;99.90;;;;;;5002099;28;20034;-65
2024/01/30 03:00:12;;;;;;;29.00;23.65;;;6.30;99.90;;;;;;5002311;28;20794;-66
2024/01/30 03:02:38;;;;;;;33.42;25.55;;;6.30;99.90;;;;;;4982879;28;20307;-66
2024/01/30 03:05:05;;;;;;;28.23;24.33;;;6.40;99.90;;;;;;4966557;28;20723;-65
2024/01/30 03:07:31;;;;;;;29.58;24.95;;;6.40;99.90;;;;;;4999584;28;20073;-65
2024/01/30 03:09:57;;;;;;;31.80;26.25;;;6.40;99.90;;;;;;5000187;28;20160;-66
2024/01/30 03:12:22;;;;;;;30.63;23.83;;;6.30;99.90;;;;;;4984422;28;20048;-65
2024/01/30 03:14:49;;;;;;;31.17;26.50;;;6.30;99.90;;;;;;4999038;28;20038;-65
2024/01/30 03:17:15;;;;;;;30.20;25.00;;;6.30;99.90;;;;;;4983363;28;20044;-65
2024/01/30 03:19:40;;;;;;;34.17;26.27;;;6.30;99.90;;;;;;4982773;28;20627;-66
2024/01/30 03:22:06;;;;;;;29.95;23.67;;;6.20;99.90;;;;;;4999889;28;20045;-65
2024/01/30 03:24:32;;;;;;;29.95;23.75;;;6.20;99.90;;;;;;4978036;28;20050;-64
2024/01/30 03:26:58;;;;;;;31.83;24.88;;;6.20;99.90;;;;;;5000432;28;20042;-66
2024/01/30 03:29:23;;;;;;;28.42;24.75;;;6.30;99.90;;;;;;5000516;28;20045;-66
2024/01/30 03:31:49;;;;;;;29.23;23.38;;;6.20;99.90;;;;;;4966504;28;20038;-65
2024/01/30 03:34:15;;;;;;;31.25;23.38;;;6.10;99.90;;;;;;4990523;28;20060;-65
2024/01/30 03:36:41;;;;;;;30.23;25.05;;;6.20;99.90;;;;;;4984798;28;20053;-65
2024/01/30 03:39:06;;;;;;;28.73;23.52;;;6.10;99.90;;;;;;4978935;28;20050;-65
2024/01/30 03:41:32;;;;;;;31.63;24.13;;;6.20;99.90;;;;;;4998943;28;20049;-66
2024/01/30 03:43:58;;;;;;;26.08;22.23;;;6.20;99.90;;;;;;4966764;28;20057;-65
2024/01/30 03:46:24;;;;;;;26.85;22.50;;;6.20;99.90;;;;;;4999299;28;20042;-65
2024/01/30 03:48:50;;;;;;;27.35;23.25;;;6.20;99.90;;;;;;4983495;28;20068;-65
2024/01/30 03:51:15;;;;;;;28.08;23.60;;;6.10;99.90;;;;;;4966972;28;20052;-66
2024/01/30 03:53:42;;;;;;;31.25;23.88;;;6.20;99.90;;;;;;5001369;28;20353;-65
2024/01/30 03:56:08;;;;;;;30.73;24.38;;;6.20;99.90;;;;;;4998135;28;20060;-65
2024/01/30 03:58:35;;;;;;;31.50;25.92;;;6.20;99.90;;;;;;5002203;28;20046;-65
2024/01/30 04:01:01;;;;;;;27.67;24.00;;;6.20;99.90;;;;;;5000882;28;20385;-65
2024/01/30 04:03:27;;;;;;;31.38;25.02;;;6.20;99.90;;;;;;5017109;28;20057;-65
2024/01/30 04:05:53;;;;;;;32.80;24.85;;;6.10;99.90;;;;;;4982646;28;20042;-65
2024/01/30 04:08:19;;;;;;;28.40;23.25;;;6.10;99.90;;;;;;5001888;28;20046;-66
2024/01/30 04:10:46;;;;;;;30.58;24.83;;;6.10;99.90;;;;;;4965714;28;21685;-66
2024/01/30 04:13:12;;;;;;;31.75;26.63;;;6.20;99.90;;;;;;5002966;28;20417;-66
2024/01/30 04:15:38;;;;;;;28.70;23.83;;;6.10;99.90;;;;;;4984224;28;20504;-66
2024/01/30 04:18:04;;;;;;;29.92;24.05;;;6.20;99.90;;;;;;4979320;28;20109;-66
2024/01/30 04:20:30;;;;;;;28.02;23.13;;;6.20;99.90;;;;;;5001895;28;20495;-66
2024/01/30 04:22:56;;;;;;;25.90;21.67;;;6.30;99.90;;;;;;4988166;28;20064;-65
2024/01/30 04:25:21;;;;;;;26.90;21.65;;;6.30;99.90;;;;;;4988569;28;20045;-65
2024/01/30 04:27:48;;;;;;;24.67;20.20;;;6.40;99.90;;;;;;4989200;28;20152;-65
2024/01/30 04:30:14;;;;;;;24.92;20.15;;;6.40;99.90;;;;;;5005827;28;20037;-65
2024/01/30 04:32:40;;;;;;;24.58;21.08;;;6.50;99.90;;;;;;5005074;28;20049;-66
2024/01/30 04:35:06;;;;;;;26.75;22.60;;;6.60;99.90;;;;;;5004296;28;20057;-64
2024/01/30 04:37:32;;;;;;;28.17;21.23;;;6.70;99.90;;;;;;4984707;28;20392;-65
2024/01/30 04:39:57;;;;;;;27.00;22.83;;;6.70;99.90;;;;;;5002600;28;20053;-65
2024/01/30 04:42:23;;;;;;;28.70;22.67;;;6.80;99.90;;;;;;5002540;28;20400;-65
2024/01/30 04:44:50;;;;;;;23.23;20.75;;;6.80;99.90;;;;;;5004123;28;20045;-65
2024/01/30 04:47:16;;;;;;;28.33;21.52;;;6.80;99.90;;;;;;5002599;28;20642;-65
2024/01/30 04:49:42;;;;;;;28.27;23.48;;;6.90;99.90;;;;;;5001754;28;20125;-65
2024/01/30 04:52:08;;;;;;;25.05;21.73;;;6.80;99.90;;;;;;4987484;28;20045;-65
2024/01/30 04:54:35;;;;;;;27.77;21.92;;;6.80;99.90;;;;;;5002640;28;20045;-64
2024/01/30 04:57:02;;;;;;;27.77;22.67;;;6.90;99.90;;;;;;4987353;28;20092;-64
2024/01/30 04:59:28;;;;;;;26.92;22.70;;;6.90;99.90;;;;;;5001985;28;20158;-65
2024/01/30 05:01:54;;;;;;;24.05;21.45;;;6.80;99.90;;;;;;5000302;28;20050;-65
2024/01/30 05:04:20;;;;;;;23.88;21.05;;;6.90;99.90;;;;;;4986872;28;20052;-64
2024/01/30 05:06:46;;;;;;;22.67;19.15;;;6.70;99.90;;;;;;5001572;28;20064;-65
2024/01/30 05:09:12;;;;;;;26.85;21.45;;;6.80;99.90;;;;;;5001225;28;20053;-65
2024/01/30 05:11:41;;;;;;;24.50;20.60;;;6.80;99.90;;;;;;4984069;28;20095;-65
2024/01/30 05:14:11;;;;;;;23.40;20.67;;;6.80;99.90;;;;;;5001711;28;20069;-65
2024/01/30 05:16:37;;;;;;;24.08;20.13;;;6.70;99.90;;;;;;4969118;28;20045;-65
2024/01/30 05:19:04;;;;;;;23.65;20.50;;;6.80;99.90;;;;;;4988547;28;20049;-68
2024/01/30 05:21:29;;;;;;;22.38;19.98;;;6.80;99.90;;;;;;5014978;28;20567;-67
2024/01/30 05:23:55;;;;;;;24.58;21.20;;;6.80;99.90;;;;;;5029348;28;20504;-68
2024/01/30 05:26:22;;;;;;;23.95;20.70;;;6.80;99.90;;;;;;4979305;28;20420;-67
2024/01/30 05:28:48;;;;;;;25.05;20.10;;;7.00;99.90;;;;;;5010233;28;20474;-65
2024/01/30 05:31:14;;;;;;;25.08;20.90;;;7.00;99.90;;;;;;4994112;28;20172;-67
2024/01/30 05:33:41;;;;;;;24.23;19.63;;;7.00;99.90;;;;;;4978728;28;20049;-67
2024/01/30 05:36:07;;;;;;;23.90;20.30;;;7.20;99.90;;;;;;4994917;28;20056;-67
2024/01/30 05:38:32;;;;;;;23.60;20.35;;;7.20;99.90;;;;;;4996575;28;20255;-66
2024/01/30 05:40:58;;;;;;;24.13;20.17;;;7.20;99.90;;;;;;4980560;28;20041;-67
2024/01/30 05:43:27;;;;;;;24.05;20.25;;;7.20;99.90;;;;;;4994149;28;20054;-67
2024/01/30 05:45:53;;;;;;;19.95;17.85;;;7.20;99.90;;;;;;4996294;28;20583;-67
2024/01/30 05:48:21;;;;;;;19.95;17.75;;;7.30;99.90;;;;;;4994177;28;20054;-67
2024/01/30 05:50:50;;;;;;;21.33;18.17;;;7.30;99.90;;;;;;4994282;28;20052;-67
2024/01/30 05:53:16;;;;;;;22.80;18.05;;;7.30;99.90;;;;;;4979024;28;20131;-67
2024/01/30 05:55:42;;;;;;;21.48;17.17;;;7.30;99.90;;;;;;4978046;28;20683;-67
2024/01/30 05:58:08;;;;;;;19.13;17.08;;;7.30;99.90;;;;;;4994374;28;20037;-68
2024/01/30 06:00:33;;;;;;;19.58;16.63;;;7.30;99.90;;;;;;4993925;28;20123;-67
2024/01/30 06:02:59;;;;;;;18.88;16.27;;;7.30;99.90;;;;;;4995735;28;20575;-67
2024/01/30 06:05:25;;;;;;;23.67;17.45;;;7.30;99.90;;;;;;4995149;28;20209;-67
2024/01/30 06:07:51;;;;;;;21.70;18.48;;;7.20;99.90;;;;;;4978116;28;20118;-67
2024/01/30 06:10:17;;;;;;;22.38;19.23;;;7.20;99.90;;;;;;4979028;28;20048;-67
2024/01/30 06:12:43;;;;;;;23.25;19.60;;;7.20;99.90;;;;;;4981020;28;20582;-67
2024/01/30 06:15:09;;;;;;;22.20;18.88;;;7.20;99.90;;;;;;4978076;28;20038;-67
2024/01/30 06:17:35;;;;;;;21.17;18.67;;;7.20;99.90;;;;;;5011406;28;20531;-66
2024/01/30 06:20:04;;;;;;;22.98;18.90;;;7.30;99.90;;;;;;4979741;28;20050;-67
2024/01/30 06:22:30;;;;;;;22.85;19.25;;;7.40;99.90;;;;;;4994690;28;20132;-67
2024/01/30 06:24:56;;;;;;;23.83;18.33;;;7.30;99.90;;;;;;4993134;28;20053;-67
2024/01/30 06:27:21;;;;;;;22.63;19.35;;;7.40;99.90;;;;;;4962061;28;20041;-67
2024/01/30 06:29:47;;;;;;;22.23;18.60;;;7.40;99.90;;;;;;4978802;28;20507;-67
2024/01/30 06:32:13;;;;;;;20.83;17.98;;;7.40;99.90;;;;;;4993511;28;20064;-68
2024/01/30 06:34:39;;;;;;;22.98;19.35;;;7.40;99.90;;;;;;4960896;28;20151;-68
2024/01/30 06:37:05;;;;;;;21.02;17.55;;;7.40;99.90;;;;;;4979704;28;20041;-67
2024/01/30 06:39:31;;;;;;;22.95;19.27;;;7.50;99.90;;;;;;4991299;28;20378;-68
2024/01/30 06:41:57;;;;;;;18.80;16.60;;;7.50;99.90;;;;;;4977734;28;20049;-67
2024/01/30 06:44:23;;;;;;;20.20;17.80;;;7.50;99.90;;;;;;4993603;28;20107;-67
2024/01/30 06:46:48;;;;;;;23.80;18.35;;;7.50;99.90;;;;;;4979760;28;20520;-68
2024/01/30 06:49:14;;;;;;;20.23;16.70;;;7.60;99.90;;;;;;4993670;28;20161;-68
2024/01/30 06:51:40;;;;;;;19.58;17.23;;;7.70;99.90;;;;;;4973708;28;20053;-68
2024/01/30 06:54:06;;;;;;;19.67;15.95;;;7.60;99.90;;;;;;4980582;28;20042;-67
2024/01/30 06:56:31;;;;;;;19.85;16.77;;;7.60;99.90;;;;;;4981532;28;20621;-67
2024/01/30 06:58:59;;;;;;;19.13;15.02;;;7.60;99.90;;;;;;4995985;28;20069;-67
2024/01/30 07:01:29;;;;;;;20.10;16.88;;;7.70;99.90;;;;;;4961992;28;20061;-67
2024/01/30 07:03:58;;;;;;;19.42;16.40;;;7.70;99.90;;;;;;4976754;28;20041;-67
2024/01/30 07:06:24;;;;;;;20.35;16.50;;;7.70;99.90;;;;;;4991731;28;20042;-68
2024/01/30 07:08:50;;;;;;;18.02;14.45;;;7.80;99.90;;;;;;4995273;28;20046;-67
2024/01/30 07:11:23;;;;;;;18.25;14.48;;;7.70;99.90;;;;;;4977973;28;20367;-68
2024/01/30 07:13:53;;;;;;;18.33;15.93;;;7.80;99.90;;;;;;4977082;28;20042;-67
2024/01/30 07:16:19;;;;;;;19.52;15.70;;;7.80;99.90;;;;;;4989846;28;20108;-67
2024/01/30 07:18:45;;;;;;;20.65;15.90;;;7.80;99.90;;;;;;4975752;28;20054;-69
2024/01/30 07:21:11;;;;;;;18.33;14.85;;;7.90;99.90;;;;;;4980884;28;20046;-68
2024/01/30 07:23:38;;;;;;;19.83;16.60;;;7.90;99.90;;;;;;4994788;28;20042;-69
2024/01/30 07:26:06;;;;;;;18.70;15.32;;;7.90;99.90;;;;;;5014082;28;20284;-69
2024/01/30 07:28:33;;;;;;;17.30;13.85;;;7.90;99.90;;;;;;4976319;28;20048;-67
2024/01/30 07:30:59;;;;;;;18.55;15.55;;;8.00;99.90;;;;;;4993968;28;20048;-68
2024/01/30 07:33:24;;;;;;;19.77;15.20;;;7.90;99.90;;;;;;4960125;28;20041;-67
2024/01/30 07:35:53;;;;;;;20.33;16.00;;;7.90;99.90;;;;;;4976511;28;20188;-67
2024/01/30 07:38:19;;;;;;;16.58;13.70;;;7.90;99.90;;;;;;4978761;28;20060;-68
2024/01/30 07:40:45;;;;;;;20.33;16.60;;;8.00;99.90;;;;;;4995919;28;20046;-68
2024/01/30 07:43:11;;;;;;;18.73;14.98;;;7.90;99.90;;;;;;4993428;28;20411;-68
2024/01/30 07:45:38;;;;;;;22.08;17.27;;;8.00;99.90;;;;;;4992885;28;20048;-68
2024/01/30 07:48:05;;;;;;;18.50;15.02;;;8.00;99.90;;;;;;4976215;28;20053;-68
2024/01/30 07:50:32;;;;;;;22.58;16.38;;;8.00;99.90;;;;;;4992297;28;20057;-68
2024/01/30 07:53:00;;;;;;;19.85;16.80;;;8.00;99.90;;;;;;4973482;28;20100;-68
2024/01/30 07:55:28;;;;;;;21.08;17.02;;;8.00;99.90;;;;;;4995017;28;20064;-68
2024/01/30 07:57:54;;;;;;;20.77;16.73;;;8.00;99.90;;;;;;4960488;28;20075;-68
2024/01/30 08:00:23;;;;;;;20.17;16.23;;;8.00;99.90;;;;;;4992973;28;20400;-68
2024/01/30 08:02:49;;;;;;;22.30;16.98;;;8.00;99.90;;;;;;4992082;28;20269;-68
2024/01/30 08:05:15;;;;;;;22.20;17.33;;;8.00;99.90;;;;;;4992774;28;20041;-68
2024/01/30 08:07:42;;;;;;;17.40;15.50;;;8.00;99.90;;;;;;4976027;28;20046;-68
2024/01/30 08:10:08;;;;;;;19.13;15.75;;;8.00;99.90;;;;;;4994634;28;20124;-68
2024/01/30 08:12:34;;;;;;;20.30;15.27;;;8.00;99.90;;;;;;4992677;28;20054;-69
2024/01/30 08:15:00;;;;;;;24.30;18.02;;;8.00;99.90;;;;;;4976236;28;20041;-67
2024/01/30 08:17:25;;;;;;;20.10;15.90;;;8.00;99.90;;;;;;4959682;28;20048;-67
2024/01/30 08:19:51;;;;;;;21.10;15.98;;;8.00;99.90;;;;;;4991916;28;20141;-67
2024/01/30 08:22:17;;;;;;;20.45;15.65;;;8.10;99.90;;;;;;4981939;28;20053;-68
2024/01/30 08:24:43;;;;;;;20.98;16.48;;;8.10;99.90;;;;;;4976248;28;20128;-68
2024/01/30 08:27:09;;;;;;;19.63;16.02;;;8.10;99.90;;;;;;4994307;28;20443;-68
2024/01/30 08:29:36;;;;;;;19.80;16.67;;;8.10;99.90;;;;;;4992128;28;20046;-68
2024/01/30 08:32:02;;;;;;;20.50;17.15;;;8.20;99.90;;;;;;4978387;28;20045;-68
2024/01/30 08:34:28;;;;;;;21.23;16.58;;;8.20;99.90;;;;;;4977055;28;20038;-68
2024/01/30 08:36:54;;;;;;;20.30;15.95;;;8.20;99.90;;;;;;4972019;28;20306;-68
2024/01/30 08:39:19;;;;;;;19.80;16.98;;;8.30;99.90;;;;;;4959429;28;20614;-68
2024/01/30 08:41:45;;;;;;;19.60;16.45;;;8.20;99.90;;;;;;4975607;28;20050;-68
2024/01/30 08:44:11;;;;;;;18.25;15.80;;;8.30;99.90;;;;;;4959428;28;20141;-68
2024/01/30 08:46:37;;;;;;;20.13;14.65;;;8.30;99.90;;;;;;4991278;28;20118;-67
2024/01/30 08:49:06;;;;;;;20.17;16.83;;;8.20;99.90;;;;;;4976151;28;20352;-67
2024/01/30 08:51:34;;;;;;;19.40;15.88;;;8.30;99.90;;;;;;4975111;28;20156;-68
2024/01/30 08:54:02;;;;;;;19.52;15.80;;;8.40;99.90;;;;;;4993846;28;20045;-69
2024/01/30 08:56:28;;;;;;;17.85;15.80;;;8.50;99.90;;;;;;5009396;28;20051;-68
2024/01/30 08:58:54;;;;;;;16.77;14.55;;;8.40;99.90;;;;;;4959607;28;20052;-68
2024/01/30 09:01:20;;;;;;;17.85;14.93;;;8.40;99.90;;;;;;4975879;28;20049;-68
2024/01/30 09:03:46;;;;;;;17.27;15.18;;;8.60;99.90;;;;;;4993441;28;20046;-68
2024/01/30 09:06:13;;;;;;;16.73;14.48;;;8.60;99.90;;;;;;4985957;28;20301;-68
2024/01/30 09:08:39;;;;;;;19.85;14.57;;;8.60;99.90;;;;;;4994996;28;20127;-68
2024/01/30 09:11:12;;;;;;;18.10;14.63;;;8.60;99.90;;;;;;4996135;28;20429;-68
2024/01/30 09:13:38;;;;;;;18.20;14.40;;;8.70;99.90;;;;;;4998601;28;20064;-68
2024/01/30 09:16:04;;;;;;;15.73;13.00;;;8.70;99.90;;;;;;4979175;28;20042;-68
2024/01/30 09:18:31;;;;;;;21.02;14.85;;;8.80;99.90;;;;;;4977141;28;20098;-68
2024/01/30 09:20:57;;;;;;;16.70;14.25;;;8.80;99.90;;;;;;5000047;28;20045;-68
2024/01/30 09:23:22;;;;;;;17.83;14.52;;;8.90;99.90;;;;;;4980401;28;20307;-68
2024/01/30 09:25:48;;;;;;;21.15;15.15;;;9.00;99.90;;;;;;4980007;28;20446;-68
2024/01/30 09:28:15;;;;;;;17.95;14.73;;;9.00;99.90;;;;;;4996427;28;20516;-68
2024/01/30 09:30:41;;;;;;;18.15;14.82;;;9.10;99.90;;;;;;4996045;28;20489;-68
2024/01/30 09:33:07;;;;;;;18.15;14.23;;;9.10;99.90;;;;;;4962690;28;20069;-68
2024/01/30 09:35:33;;;;;;;15.82;13.70;;;9.10;99.90;;;;;;4995233;28;20075;-68
2024/01/30 09:37:59;;;;;;;17.55;14.13;;;9.20;99.90;;;;;;4996987;28;20038;-68
2024/01/30 09:40:25;;;;;;;18.05;13.13;;;9.20;99.90;;;;;;5011895;28;20439;-68
2024/01/30 09:42:51;;;;;;;15.88;12.70;;;9.20;99.90;;;;;;4978538;28;20533;-68
2024/01/30 09:45:24;;;;;;;16.70;13.50;;;9.30;99.90;;;;;;4994878;28;20037;-68
2024/01/30 09:47:51;;;;;;;18.35;12.82;;;9.30;99.90;;;;;;4978542;28;20561;-68
2024/01/30 09:50:17;;;;;;;19.17;13.25;;;9.40;99.90;;;;;;4981648;28;20535;-67
2024/01/30 09:52:45;;;;;;;18.58;13.57;;;9.40;99.90;;;;;;4995408;28;20045;-68
2024/01/30 09:55:11;;;;;;;19.75;12.80;;;9.50;99.90;;;;;;4997278;28;20352;-68
2024/01/30 09:57:37;;;;;;;17.73;12.73;;;9.60;99.90;;;;;;4996123;28;20045;-68
2024/01/30 10:00:04;;;;;;;21.58;12.82;;;9.70;99.90;;;;;;4978573;28;20038;-67
2024/01/30 10:02:32;;;;;;;15.02;11.50;;;9.80;99.90;;;;;;4995568;28;20034;-67
2024/01/30 10:04:57;;;;;;;15.23;11.95;;;9.80;99.90;;;;;;4998551;28;20460;-68
2024/01/30 10:07:23;;;;;;;14.35;11.38;;;9.90;99.90;;;;;;4979658;28;20038;-68
2024/01/30 10:09:49;;;;;;;13.82;11.43;;;10.00;99.90;;;;;;4994377;28;20045;-68
2024/01/30 10:12:15;;;;;;;16.20;11.55;;;10.10;99.90;;;;;;4994127;28;20680;-68
2024/01/30 10:14:42;;;;;;;20.23;12.35;;;10.20;99.90;;;;;;4967503;28;20273;-68
2024/01/30 10:17:09;;;;;;;16.90;11.77;;;10.40;99.90;;;;;;4964708;28;20046;-68
2024/01/30 10:19:36;;;;;;;16.17;12.30;;;10.40;99.90;;;;;;4981926;28;20041;-66
2024/01/30 10:22:02;;;;;;;13.93;11.40;;;10.40;99.90;;;;;;5037618;28;20049;-66
2024/01/30 10:24:29;;;;;;;16.35;11.32;;;10.50;99.90;;;;;;4986858;28;20053;-65
2024/01/30 10:26:55;;;;;;;17.10;11.25;;;10.40;99.90;;;;;;5001969;28;20114;-66
2024/01/30 10:29:21;;;;;;;15.02;11.27;;;10.40;99.90;;;;;;4986646;28;20046;-66
2024/01/30 10:32:01;;;;;;;16.38;11.48;;;10.50;99.90;;;;;;4986671;28;20041;-66
2024/01/30 10:34:27;;;;;;;19.50;12.10;;;10.50;99.90;;;;;;5015910;28;20040;-67
2024/01/30 10:37:15;;;;;;;17.00;12.23;;;10.60;99.90;;;;;;5001834;28;20053;-65
2024/01/30 10:39:43;;;;;;;16.52;11.50;;;10.70;99.90;;;;;;5003445;28;20042;-66
2024/01/30 10:42:18;;;;;;;12.95;10.73;;;10.90;99.90;;;;;;5015896;28;20177;-65
2024/01/30 10:45:04;;;;;;;14.23;11.60;;;10.90;99.90;;;;;;4998177;28;20044;-68
2024/01/30 10:47:30;;;;;;;18.13;11.52;;;10.90;99.90;;;;;;4995602;28;20052;-68
2024/01/30 10:49:57;;;;;;;13.57;10.82;;;10.90;99.90;;;;;;4959168;28;20483;-68
2024/01/30 10:52:26;;;;;;;14.98;11.65;;;10.90;99.90;;;;;;4978119;28;20034;-68
2024/01/30 10:54:54;;;;;;;14.15;10.55;;;10.90;99.90;;;;;;4977707;28;20430;-68
2024/01/30 10:57:21;;;;;;;12.75;10.73;;;10.80;99.90;;;;;;4993274;28;20041;-68
2024/01/30 10:59:48;;;;;;;15.50;11.05;;;10.80;99.90;;;;;;4993280;28;20571;-68
2024/01/30 11:02:14;;;;;;;16.10;11.10;;;10.80;99.90;;;;;;4977633;28;20070;-68
2024/01/30 11:04:44;;;;;;;16.45;11.52;;;10.70;99.90;;;;;;4979681;28;20205;-67
2024/01/30 11:07:28;;;;;;;15.77;11.18;;;10.80;99.90;;;;;;4960834;28;20543;-68
2024/01/30 11:10:02;;;;;;;18.20;11.85;;;10.70;99.90;;;;;;4993918;28;20077;-70
2024/01/30 11:12:35;;;;;;;18.35;10.98;;;10.70;99.90;;;;;;4991523;28;20037;-68
2024/01/30 11:15:05;;;;;;;14.25;11.18;;;10.70;99.90;;;;;;4976889;28;20042;-68
2024/01/30 11:17:49;;;;;;;14.43;9.40;;;10.70;99.90;;;;;;4976352;28;20160;-67
2024/01/30 11:20:18;;;;;;;13.82;10.07;;;10.70;99.90;;;;;;4985370;28;20379;-67
2024/01/30 11:22:49;;;;;;;16.15;12.02;;;10.70;99.90;;;;;;4993426;28;20045;-68
2024/01/30 11:25:16;;;;;;;17.30;11.18;;;10.80;99.90;;;;;;4974753;28;20041;-68
2024/01/30 11:27:46;;;;;;;17.70;11.63;;;10.80;99.90;;;;;;4992429;28;20570;-67
2024/01/30 11:30:41;;;;;;;17.73;10.75;;;10.80;99.90;;;;;;4994858;28;20038;-67
2024/01/30 11:33:12;;;;;;;16.08;10.95;;;10.80;99.90;;;;;;4980999;28;20057;-68
2024/01/30 11:35:41;;;;;;;15.55;10.77;;;10.90;99.90;;;;;;4993359;28;20038;-68
2024/01/30 11:38:09;;;;;;;15.23;10.07;;;10.90;99.90;;;;;;4977043;28;20124;-68
2024/01/30 11:40:36;;;;;;;16.02;11.35;;;10.80;99.90;;;;;;4993133;28;20051;-69
2024/01/30 11:43:07;;;;;;;15.15;11.13;;;10.80;99.90;;;;;;5008770;28;20103;-68
2024/01/30 11:45:34;;;;;;;18.02;11.57;;;10.80;99.90;;;;;;4992823;28;20804;-68
2024/01/30 11:48:03;;;;;;;17.23;10.90;;;10.80;99.90;;;;;;4994880;28;20065;-68
2024/01/30 11:50:33;;;;;;;16.60;11.73;;;10.90;99.90;;;;;;4994317;28;20042;-68
2024/01/30 11:53:02;;;;;;;18.63;10.05;;;10.80;99.90;;;;;;4978099;28;20041;-71
2024/01/30 11:55:30;;;;;;;14.32;10.27;;;10.80;99.90;;;;;;4980064;28;20289;-68
2024/01/30 11:58:00;;;;;;;12.55;9.07;;;10.80;99.90;;;;;;4977129;28;20115;-68
2024/01/30 12:00:26;;;;;;;12.45;7.70;;;10.80;99.90;;;;;;4978960;28;20046;-68
2024/01/30 12:02:55;;;;;;;12.93;7.47;;;10.80;99.90;;;;;;4978771;28;20064;-67
2024/01/30 12:05:25;;;;;;;12.15;7.28;;;10.80;99.90;;;;;;4989007;28;20056;-68
2024/01/30 12:07:51;;;;;;;12.25;5.88;;;10.80;99.90;;;;;;4978658;28;20461;-67
2024/01/30 12:10:17;;;;;;;14.60;6.43;;;10.70;99.90;;;;;;4992876;28;20034;-67
2024/01/30 12:12:47;;;;;;;13.65;6.03;;;10.70;99.90;;;;;;4975765;28;20078;-67
2024/01/30 12:15:14;;;;;;;15.98;5.70;;;10.70;99.90;;;;;;4991834;28;20038;-66
2024/01/30 12:17:41;;;;;;;11.23;5.63;;;10.70;99.90;;;;;;4995113;28;20056;-67
2024/01/30 12:20:09;;;;;;;13.80;5.38;;;10.70;99.90;;;;;;4993355;28;20152;-68
2024/01/30 12:22:39;;;;;;;9.05;4.45;;;10.60;99.90;;;;;;4994129;28;20042;-67
2024/01/30 12:25:15;;;;;;;12.30;4.13;;;10.70;99.90;;;;;;4991721;28;20044;-68
2024/01/30 12:27:51;;;;;;;10.23;3.75;;;10.70;99.90;;;;;;4995245;28;20057;-67
2024/01/30 12:30:20;;;;;;;9.95;3.72;;;10.70;99.90;;;;;;4995085;28;20488;-67
2024/01/30 12:32:47;;;;;;;5.88;2.80;;;10.70;99.90;;;;;;4989320;28;20148;-67
2024/01/30 12:35:14;;;;;;;7.15;2.63;;;10.70;99.90;;;;;;4993669;28;20084;-67